Latest Weather Observations for Double Island Point

IDQ60901

Issued at 10:22 pm EST Friday 29 May 2015 (issued every 10 minutes, with the page automatically refreshed every 10 minutes)

About weather observations | Map of Brisbane area stations | Latest observations for Brisbane area | Other Formats
Station Details ID: 040068 Name: DOUBLE ISLAND POINT LIGHTHOUSE Lat: -25.93 Lon: 153.19 Height: 95.64 m
Data from the previous 72 hours. | See also: Recent months at Double Island Point
Date/Time
EST
Tmp

°C
App
Tmp
°C
Dew
Point
°C
Rel
Hum
%
Delta-T

°C
Wind Press
QNH
hPa
Press
MSL
hPa
Rain
since
9 am
mm
Dir
 
Spd
km/h
Gust
km/h
Spd
kts
Gust
kts
29/10:00pm 20.2 21.7 17.6 85 1.6 N 6 9 3 5 1023.1 1022.9 0.0
29/09:30pm 20.3 21.3 17.7 85 1.6 N 9 9 5 5 1023.1 1022.9 0.0
29/09:00pm 20.3 21.3 17.7 85 1.6 N 9 13 5 7 1023.2 1023.0 0.0
29/08:30pm 20.4 20.7 17.8 85 1.6 N 13 15 7 8 1023.1 1022.9 0.0
29/08:00pm 20.4 20.2 17.6 84 1.7 NNE 15 17 8 9 1023.2 1023.0 0.0
29/07:30pm 20.3 20.8 17.5 84 1.7 NNE 11 15 6 8 1023.2 1023.0 0.0
29/07:00pm 20.5 21.4 17.5 83 1.8 NE 9 13 5 7 1023.1 1022.9 0.0
29/06:30pm 20.7 21.6 17.5 82 2.0 NE 9 13 5 7 1022.8 1022.6 0.0
29/06:00pm 20.8 21.6 17.4 81 2.1 NE 9 13 5 7 1022.7 1022.5 0.0
29/05:30pm 20.9 21.6 17.1 79 2.3 NE 9 11 5 6 1022.4 1022.2 0.0
29/05:00pm 21.7 22.9 17.3 76 2.7 NE 7 9 4 5 1022.1 1021.8 0.0
29/04:30pm 22.7 24.0 17.6 73 3.2 NE 7 9 4 5 1022.0 1021.7 0.0
29/04:00pm 22.9 24.3 17.8 73 3.2 NE 7 11 4 6 1021.8 1021.5 0.0
29/03:30pm 22.1 22.9 17.2 74 3.0 ENE 9 11 5 6 1021.5 1021.2 0.0
29/03:00pm 22.0 23.4 17.4 75 2.8 E 6 7 3 4 1021.6 1021.3 0.0
29/02:30pm 21.8 23.1 17.6 77 2.6 E 7 9 4 5 1021.7 1021.4 0.0
29/02:00pm 21.7 22.7 17.7 78 2.5 SSE 9 13 5 7 1021.9 1021.6 0.0
29/01:30pm 22.0 22.6 17.8 77 2.6 SSE 11 13 6 7 1022.0 1021.7 0.0
29/01:00pm 21.9 23.2 17.5 76 2.7 SE 7 11 4 6 1022.0 1021.7 0.0
29/12:30pm 21.5 22.4 17.5 78 2.5 SE 9 13 5 7 1022.5 1022.3 0.0
29/12:00pm 21.4 21.8 17.2 77 2.6 SE 11 13 6 7 1022.9 1022.7 0.0
29/11:30am 21.3 21.3 17.3 78 2.5 S 13 15 7 8 1023.3 1023.1 0.0
29/11:00am 21.0 21.0 17.2 79 2.3 S 13 15 7 8 1023.5 1023.3 0.0
29/10:30am 21.0 21.3 17.0 78 2.4 S 11 13 6 7 1023.9 1023.7 0.0
29/10:00am 20.9 21.2 17.1 79 2.3 SSE 11 15 6 8 1024.2 1024.0 0.0
29/09:30am 20.6 20.2 17.2 81 2.1 S 15 17 8 9 1024.6 1024.3 0.0
29/09:00am 20.4 20.3 17.0 81 2.1 S 13 17 7 9 1024.7 1024.4 0.0
29/08:30am 20.0 20.3 17.0 83 1.8 S 11 13 6 7 1024.5 1024.2 0.0
29/08:00am 19.5 19.2 16.5 83 1.8 S 13 15 7 8 1024.1 1023.9 0.0
29/07:30am 19.3 18.6 16.5 84 1.7 SSE 15 17 8 9 1023.8 1023.6 0.0
29/07:00am 19.3 18.9 16.3 83 1.8 S 13 17 7 9 1023.5 1023.3 0.0
29/06:30am 19.1 18.4 16.3 84 1.7 SSW 15 19 8 10 1023.5 1023.3 0.0
29/06:00am 19.0 17.8 16.2 84 1.7 SSW 17 19 9 10 1023.2 1023.0 0.0
29/05:30am 19.1 19.5 16.3 84 1.7 SSW 9 11 5 6 1022.8 1022.6 0.0
29/05:00am 19.0 18.6 16.2 84 1.7 SSW 13 17 7 9 1022.5 1022.3 0.0
29/04:30am 19.1 18.7 16.1 83 1.8 SSW 13 15 7 8 1022.4 1022.2 0.0
29/04:00am 20.1 21.3 15.9 77 2.5 N 4 7 2 4 1022.3 1022.1 0.0
29/03:30am 20.3 21.0 16.1 77 2.5 E 7 11 4 6 1022.3 1022.1 0.0
29/03:00am 20.2 20.5 16.0 77 2.5 E 9 11 5 6 1022.9 1022.7 0.0
29/02:30am 20.2 19.9 16.4 79 2.3 E 13 15 7 8 1022.7 1022.5 0.0
29/02:00am 19.9 19.2 16.3 80 2.2 E 15 17 8 9 1022.8 1022.6 0.0
29/01:30am 19.9 18.7 16.2 79 2.2 ENE 17 24 9 13 1023.0 1022.8 0.0
29/01:00am 19.3 18.9 16.2 82 1.9 E 13 20 7 11 1023.0 1022.8 0.0
29/12:30am 19.4 19.1 16.4 83 1.8 SE 13 19 7 10 1023.5 1023.3 0.0
29/12:00am 19.7 20.3 16.9 84 1.7 ESE 9 11 5 6 1023.6 1023.4 0.0
 
Date/Time
EST
Tmp

°C
App
Tmp
°C
Dew
Point
°C
Rel
Hum
%
Delta-T

°C
Wind Press
QNH
hPa
Press
MSL
hPa
Rain
since
9 am
mm
Dir
 
Spd
km/h
Gust
km/h
Spd
kts
Gust
kts
28/11:30pm 19.6 20.3 16.1 80 2.1 SE 7 9 4 5 1023.6 1023.4 0.0
28/11:00pm 19.9 19.8 16.0 78 2.3 E 11 13 6 7 1023.6 1023.4 0.0
28/10:30pm 20.0 19.5 16.0 78 2.4 E 13 13 7 7 1024.0 1023.8 0.0
28/10:00pm 20.1 19.7 16.3 79 2.3 E 13 15 7 8 1024.0 1023.8 0.0
28/09:30pm 19.9 19.5 16.3 80 2.2 E 13 15 7 8 1023.8 1023.6 0.0
28/09:00pm 19.7 18.9 16.2 80 2.1 ESE 15 19 8 10 1023.8 1023.6 0.0
28/08:30pm 19.7 18.9 16.2 80 2.1 ESE 15 17 8 9 1023.9 1023.7 0.0
28/08:00pm 19.7 18.5 16.0 79 2.2 ESE 17 20 9 11 1023.8 1023.6 0.0
28/07:30pm 19.8 18.3 16.4 81 2.1 ESE 19 22 10 12 1023.5 1023.3 0.0
28/07:00pm 19.6 18.8 16.1 80 2.1 ESE 15 17 8 9 1023.3 1023.1 0.0
28/06:30pm 19.6 18.9 16.3 81 2.0 ESE 15 17 8 9 1022.8 1022.6 0.0
28/06:00pm 19.5 18.8 16.3 82 1.9 ESE 15 17 8 9 1022.5 1022.3 0.0
28/05:30pm 19.5 18.7 16.2 81 2.0 ESE 15 19 8 10 1022.4 1022.2 0.0
28/05:00pm 19.6 18.0 16.1 80 2.1 ESE 19 22 10 12 1022.3 1022.1 0.0
28/04:30pm 20.0 19.2 16.0 78 2.4 ESE 15 19 8 10 1022.2 1021.9 0.0
28/04:00pm 20.4 19.2 16.0 76 2.6 ESE 17 20 9 11 1022.1 1021.8 0.0
28/03:30pm 20.6 18.7 16.8 79 2.3 ESE 22 30 12 16 1021.9 1021.6 0.0
28/03:00pm 20.4 18.4 16.4 78 2.4 SSE 22 26 12 14 1021.7 1021.4 0.0
28/02:30pm 20.4 17.8 16.0 76 2.6 SE 24 28 13 15 1021.9 1021.6 0.0
28/02:00pm 20.6 17.8 16.4 77 2.5 SSE 26 32 14 17 1022.0 1021.7 0.0
28/01:30pm 20.4 18.1 16.6 79 2.3 SSE 24 30 13 16 1022.1 1021.8 0.0
28/01:00pm 20.4 18.2 16.8 80 2.2 SSE 24 30 13 16 1022.3 1022.1 0.0
28/12:30pm 20.0 17.4 16.8 82 1.9 S 26 30 14 16 1022.8 1022.6 0.0
28/12:00pm 19.8 17.0 16.4 81 2.0 S 26 33 14 18 1023.2 1023.0 0.0
28/11:30am 19.6 15.7 16.4 82 1.9 S 32 37 17 20 1023.5 1023.3 0.0
28/11:00am 19.7 15.8 16.5 82 1.9 S 32 39 17 21 1023.6 1023.4 0.0
28/10:30am 19.7 15.7 16.3 81 2.0 S 32 37 17 20 1023.9 1023.7 0.0
28/10:00am 20.0 16.8 16.4 80 2.2 S 28 37 15 20 1024.2 1024.0 0.0
28/09:30am 19.9 16.9 16.7 82 1.9 S 28 35 15 19 1024.0 1023.8 0.0
28/09:00am 19.9 17.1 16.3 80 2.2 S 26 32 14 17 1023.7 1023.5 0.0
28/08:30am 19.5 17.6 15.8 79 2.2 S 20 24 11 13 1023.7 1023.5 0.0
28/08:00am 18.9 16.6 15.6 81 1.9 S 22 24 12 13 1023.3 1023.1 0.0
28/07:30am 18.2 15.5 15.5 84 1.6 S 24 28 13 15 1023.3 1023.1 0.0
28/07:00am 17.8 15.1 15.6 87 1.3 S 24 26 13 14 1023.1 1022.9 0.0
28/06:30am 17.5 14.7 15.3 87 1.3 S 24 28 13 15 1022.9 1022.7 0.0
28/06:00am 17.7 15.0 15.7 88 1.2 S 24 28 13 15 1022.2 1021.9 0.0
28/05:30am 17.4 14.7 15.6 89 1.1 SSW 24 28 13 15 1022.4 1022.2 0.0
28/05:00am 17.9 15.0 16.1 89 1.1 S 26 33 14 18 1022.1 1021.8 0.0
28/04:30am 17.9 15.0 16.2 90 1.0 SSW 26 32 14 17 1021.7 1021.4 0.0
28/04:00am 17.8 15.2 15.8 88 1.2 S 24 28 13 15 1021.9 1021.6 0.0
28/03:30am 18.4 17.5 15.8 85 1.5 SSW 15 26 8 14 1022.2 1021.9 0.0
28/03:00am 19.4 20.0 15.9 80 2.1 ESE 7 11 4 6 1022.1 1021.8 0.0
28/02:30am 19.8 19.0 16.1 79 2.2 ENE 15 19 8 10 1021.7 1021.4 0.0
28/02:00am 19.5 19.3 15.6 78 2.3 NE 11 19 6 10 1021.9 1021.6 0.0
28/01:30am 19.5 18.9 15.6 78 2.3 ENE 13 19 7 10 1022.3 1022.1 0.0
28/01:00am 19.7 18.8 15.8 78 2.3 ENE 15 17 8 9 1022.4 1022.2 0.0
28/12:30am 19.5 18.7 16.0 80 2.1 ENE 15 19 8 10 1022.6 1022.4 0.0
28/12:00am 19.6 18.4 16.1 80 2.1 ENE 17 20 9 11 1022.3 1022.1 0.0
 
Date/Time
EST
Tmp

°C
App
Tmp
°C
Dew
Point
°C
Rel
Hum
%
Delta-T

°C
Wind Press
QNH
hPa
Press
MSL
hPa
Rain
since
9 am
mm
Dir
 
Spd
km/h
Gust
km/h
Spd
kts
Gust
kts
27/11:30pm 19.6 18.5 16.4 82 1.9 NE 17 22 9 12 1022.7 1022.5 0.0
27/11:00pm 19.6 18.1 15.3 76 2.5 E 17 20 9 11 1022.8 1022.6 0.0
27/10:30pm 19.5 17.9 15.0 75 2.6 ESE 17 19 9 10 1023.2 1023.0 0.0
27/10:00pm 19.7 17.6 15.1 75 2.7 ESE 20 24 11 13 1022.9 1022.7 0.0
27/09:30pm 19.7 17.6 15.1 75 2.7 SE 20 24 11 13 1022.9 1022.7 0.0
27/09:00pm 19.7 17.7 15.4 76 2.5 SE 20 22 11 12 1022.9 1022.7 0.0
27/08:30pm 19.6 17.5 15.3 76 2.5 SE 20 22 11 12 1022.9 1022.7 0.0
27/08:00pm 19.7 17.3 15.4 76 2.5 SE 22 26 12 14 1023.0 1022.8 0.0
27/07:30pm 19.7 16.8 15.1 75 2.7 ESE 24 28 13 15 1023.0 1022.8 0.0
27/07:00pm 19.6 16.5 15.5 77 2.4 SE 26 30 14 16 1022.6 1022.4 0.0
27/06:30pm 19.6 16.5 15.7 78 2.3 SE 26 32 14 17 1022.4 1022.2 0.0
27/06:00pm 19.7 16.4 16.0 79 2.2 SE 28 33 15 18 1022.1 1021.8 0.0
27/05:30pm 19.7 16.4 16.0 79 2.2 SE 28 32 15 17 1021.9 1021.6 0.0
27/05:00pm 19.5 16.0 15.6 78 2.3 SE 28 30 15 16 1021.9 1021.6 0.0
27/04:30pm 19.7 16.8 16.0 79 2.2 SE 26 30 14 16 1021.5 1021.2 0.0
27/04:00pm 19.7 17.1 15.8 78 2.3 SSE 24 28 13 15 1021.2 1020.9 0.0
27/03:30pm 19.8 16.7 15.7 77 2.4 SE 26 28 14 15 1021.3 1021.0 0.0
27/03:00pm 19.9 16.8 15.7 77 2.5 SE 26 32 14 17 1021.3 1021.0 0.0
27/02:30pm 20.3 17.0 16.1 77 2.5 SE 28 32 15 17 1021.4 1021.1 0.0
27/02:00pm 20.2 17.3 16.0 77 2.5 SE 26 32 14 17 1021.7 1021.4 0.0
27/01:30pm 20.3 17.1 16.3 78 2.4 SSE 28 32 15 17 1021.7 1021.4 0.0
27/01:00pm 20.3 17.2 16.5 79 2.3 SSE 28 37 15 20 1022.1 1021.8 0.0
27/12:30pm 19.8 16.3 16.4 81 2.1 S 30 35 16 19 1022.6 1022.4 0.0
27/12:00pm 19.9 16.5 16.7 82 1.9 S 30 39 16 21 1022.8 1022.6 0.0
27/11:30am 19.8 15.8 16.3 80 2.1 S 32 39 17 21 1023.4 1023.2 0.0
27/11:00am 19.3 16.2 16.5 84 1.7 S 28 37 15 20 1023.7 1023.5 0.0
27/10:30am 19.3 15.1 16.3 83 1.8 S 33 41 18 22 1023.9 1023.7 0.0
27/10:00am 19.1 14.9 16.1 83 1.8 S 33 41 18 22 1024.0 1023.8 0.0
27/09:30am 18.5 14.2 15.9 85 1.5 S 33 41 18 22 1024.1 1023.9 0.0
27/09:00am 18.0 13.5 15.4 85 1.5 S 33 43 18 23 1024.2 1024.0 14.2
27/08:30am 18.1 14.3 15.7 86 1.4 S 30 39 16 21 1024.1 1023.9 14.2
27/08:00am 18.1 14.4 15.9 87 1.3 S 30 37 16 20 1023.8 1023.6 14.2
27/07:30am 18.0 13.9 16.0 88 1.2 S 32 37 17 20 1023.6 1023.4 14.2
27/07:00am 17.8 13.7 16.0 89 1.1 S 32 39 17 21 1023.2 1023.0 14.2
27/06:30am 17.6 14.2 15.8 89 1.1 S 28 33 15 18 1022.9 1022.7 14.2
27/06:00am 17.6 14.2 15.8 89 1.1 S 28 33 15 18 1022.7 1022.5 14.2
27/05:30am 17.7 14.7 15.9 89 1.1 S 26 32 14 17 1022.6 1022.4 14.2
27/05:00am 18.1 15.7 15.5 85 1.5 S 22 28 12 15 1022.2 1021.9 14.2
27/04:30am 18.9 16.9 15.0 78 2.3 ESE 19 24 10 13 1022.3 1022.1 14.2
27/04:00am 18.8 16.6 14.9 78 2.3 E 20 24 11 13 1022.3 1022.1 14.2
27/03:30am 18.6 16.7 15.7 83 1.7 E 20 24 11 13 1022.5 1022.3 14.2
27/03:00am 18.5 15.0 15.4 82 1.8 E 28 33 15 18 1022.6 1022.4 14.2
27/02:30am 19.0 16.9 15.3 79 2.2 ESE 20 28 11 15 1023.0 1022.8 14.2
27/02:00am 19.6 16.7 15.0 75 2.7 SE 24 26 13 14 1022.8 1022.6 14.2
27/01:30am 19.3 17.0 15.6 79 2.2 SE 22 24 12 13 1023.0 1022.8 14.2
27/01:00am 18.7 16.3 16.3 86 1.4 S 24 32 13 17 1023.4 1023.2 14.2
27/12:30am 18.3 15.0 16.1 87 1.3 S 28 32 15 17 1023.7 1023.5 14.2
27/12:00am 18.4 15.9 16.2 87 1.3 S 24 32 13 17 1023.7 1023.5 14.2
 
Date/Time
EST
Tmp

°C
App
Tmp
°C
Dew
Point
°C
Rel
Hum
%
Delta-T

°C
Wind Press
QNH
hPa
Press
MSL
hPa
Rain
since
9 am
mm
Dir
 
Spd
km/h
Gust
km/h
Spd
kts
Gust
kts
26/11:30pm 18.3 15.0 16.1 87 1.3 S 28 35 15 19 1023.8 1023.6 14.2
26/11:00pm 18.6 15.6 15.8 84 1.7 S 26 30 14 16 1023.9 1023.7 14.2
26/10:30pm 18.8 17.5 15.9 83 1.7 S 17 24 9 13 1024.4 1024.1 14.2

Latest Capital City Observations: Canberra | Sydney | Melbourne | Brisbane | Adelaide | Perth | Hobart | Darwin

Other Formats:

Comma delimited format used in spreadsheet applications
http://www.bom.gov.au/fwo/IDQ60901/IDQ60901.94584.axf

JavaScript Object Notation format (JSON) in row-major order
http://www.bom.gov.au/fwo/IDQ60901/IDQ60901.94584.json